createdAt,value
2022-12-03T00:00:04.106Z,18.63
2022-12-03T00:02:36.588Z,19.77
2022-12-03T00:05:05.261Z,22.00
2022-12-03T00:07:32.703Z,18.13
2022-12-03T00:10:00.081Z,19.35
2022-12-03T00:12:26.966Z,18.73
2022-12-03T00:14:56.381Z,19.50
2022-12-03T00:17:23.591Z,19.25
2022-12-03T00:19:50.697Z,19.25
2022-12-03T00:22:17.693Z,19.15
2022-12-03T00:24:44.755Z,19.60
2022-12-03T00:27:15.025Z,19.35
2022-12-03T00:29:42.086Z,20.00
2022-12-03T00:32:09.260Z,19.10
2022-12-03T00:34:36.328Z,19.08
2022-12-03T00:37:03.577Z,21.45
2022-12-03T00:39:30.818Z,19.48
2022-12-03T00:42:00.108Z,19.45
2022-12-03T00:44:27.470Z,19.40
2022-12-03T00:46:54.517Z,19.20
2022-12-03T00:49:21.664Z,18.58
2022-12-03T00:51:48.705Z,18.33
2022-12-03T00:54:16.822Z,18.35
2022-12-03T00:56:45.799Z,20.10
2022-12-03T00:59:14.742Z,18.50
2022-12-03T01:01:41.847Z,18.25
2022-12-03T01:04:09.131Z,21.77
2022-12-03T01:06:37.590Z,19.75
2022-12-03T01:09:04.871Z,16.60
2022-12-03T01:11:37.651Z,18.88
2022-12-03T01:14:14.771Z,18.33
2022-12-03T01:16:42.538Z,18.15
2022-12-03T01:19:10.662Z,18.38
2022-12-03T01:21:41.077Z,17.13
2022-12-03T01:24:09.210Z,18.42
2022-12-03T01:26:36.748Z,17.48
2022-12-03T01:29:07.674Z,18.10
2022-12-03T01:31:53.632Z,18.15
2022-12-03T01:34:20.920Z,16.00
2022-12-03T01:36:47.837Z,16.40
2022-12-03T01:39:14.890Z,16.42
2022-12-03T01:41:42.250Z,18.85
2022-12-03T01:44:24.189Z,18.00
2022-12-03T01:46:54.619Z,18.58
2022-12-03T01:49:43.669Z,20.45
2022-12-03T01:52:17.423Z,17.90
2022-12-03T01:55:06.351Z,19.85
2022-12-03T01:57:38.436Z,17.83
2022-12-03T02:00:06.704Z,17.60
2022-12-03T02:02:35.283Z,16.65
2022-12-03T02:05:07.451Z,18.27
2022-12-03T02:07:35.485Z,15.82
2022-12-03T02:10:04.311Z,18.55
2022-12-03T02:12:36.957Z,17.23
2022-12-03T02:15:06.446Z,19.00
2022-12-03T02:17:34.326Z,18.02
2022-12-03T02:20:02.799Z,17.02
2022-12-03T02:22:48.999Z,17.67
2022-12-03T02:25:27.238Z,17.60
2022-12-03T02:27:55.308Z,17.55
2022-12-03T02:30:26.844Z,17.08
2022-12-03T02:32:54.917Z,17.15
2022-12-03T02:35:25.557Z,17.15
2022-12-03T02:37:58.764Z,16.98
2022-12-03T02:40:31.031Z,16.92
2022-12-03T02:43:01.199Z,15.05
2022-12-03T02:45:33.835Z,17.60
2022-12-03T02:48:09.209Z,16.48
2022-12-03T02:50:39.453Z,15.63
2022-12-03T02:53:11.184Z,16.73
2022-12-03T02:55:38.427Z,16.35
2022-12-03T02:58:06.156Z,15.63
2022-12-03T03:00:35.675Z,17.35
2022-12-03T03:03:05.102Z,15.18
2022-12-03T03:05:34.081Z,15.50
2022-12-03T03:08:01.755Z,15.65
2022-12-03T03:10:29.789Z,16.15
2022-12-03T03:12:57.629Z,17.75
2022-12-03T03:15:25.754Z,15.40
2022-12-03T03:17:53.080Z,16.00
2022-12-03T03:20:21.011Z,17.67
2022-12-03T03:22:51.337Z,18.33
2022-12-03T03:25:24.773Z,15.55
2022-12-03T03:27:52.591Z,15.90
2022-12-03T03:30:20.689Z,16.42
2022-12-03T03:32:47.811Z,15.40
2022-12-03T03:35:15.069Z,15.80
2022-12-03T03:37:42.349Z,15.40
2022-12-03T03:40:10.310Z,16.20
2022-12-03T03:42:39.604Z,15.20
2022-12-03T03:45:08.885Z,17.40
2022-12-03T03:47:36.906Z,15.02
2022-12-03T03:50:04.845Z,15.48
2022-12-03T03:52:32.185Z,15.07
2022-12-03T03:54:59.480Z,16.33
2022-12-03T03:57:26.939Z,14.40
2022-12-03T03:59:54.127Z,15.00
2022-12-03T04:02:24.853Z,14.65
2022-12-03T04:04:52.792Z,16.73
2022-12-03T04:07:20.410Z,15.55
2022-12-03T04:09:47.392Z,16.08
2022-12-03T04:12:33.543Z,14.85
2022-12-03T04:15:01.174Z,15.65
2022-12-03T04:17:28.325Z,15.40
2022-12-03T04:19:55.416Z,14.38
2022-12-03T04:22:41.161Z,13.88
2022-12-03T04:25:28.483Z,14.93
2022-12-03T04:28:14.358Z,14.48
2022-12-03T04:30:41.451Z,14.40
2022-12-03T04:33:26.890Z,14.38
2022-12-03T04:35:53.876Z,15.05
2022-12-03T04:38:20.840Z,16.23
2022-12-03T04:41:04.382Z,14.63
2022-12-03T04:43:34.452Z,14.00
2022-12-03T04:46:02.321Z,16.20
2022-12-03T04:48:29.968Z,13.73
2022-12-03T04:50:56.900Z,14.93
2022-12-03T04:53:23.871Z,15.32
2022-12-03T04:55:51.272Z,14.98
2022-12-03T04:58:18.278Z,16.15
2022-12-03T05:00:45.501Z,14.65
2022-12-03T05:03:12.643Z,15.73
2022-12-03T05:05:39.850Z,15.50
2022-12-03T05:08:07.372Z,15.88
2022-12-03T05:10:34.625Z,15.60
2022-12-03T05:13:03.172Z,15.30
2022-12-03T05:15:30.287Z,13.93
2022-12-03T05:17:57.714Z,13.63
2022-12-03T05:20:45.784Z,14.55
2022-12-03T05:23:19.271Z,14.65
2022-12-03T05:25:46.706Z,15.32
2022-12-03T05:28:13.668Z,14.10
2022-12-03T05:30:41.052Z,14.70
2022-12-03T05:33:08.090Z,14.70
2022-12-03T05:35:35.059Z,15.02
2022-12-03T05:38:01.952Z,13.98
2022-12-03T05:40:28.985Z,12.98
2022-12-03T05:43:01.189Z,14.55
2022-12-03T05:45:33.866Z,14.38
2022-12-03T05:48:02.250Z,14.77
2022-12-03T05:50:32.161Z,15.27
2022-12-03T05:53:00.124Z,15.43
2022-12-03T05:55:27.792Z,14.48
2022-12-03T05:57:55.444Z,13.93
2022-12-03T06:00:28.917Z,15.70
2022-12-03T06:02:56.623Z,15.38
2022-12-03T06:05:24.869Z,15.18
2022-12-03T06:07:53.474Z,15.43
2022-12-03T06:10:23.827Z,14.13
2022-12-03T06:12:51.345Z,15.23
2022-12-03T06:15:19.654Z,14.23
2022-12-03T06:17:46.978Z,15.93
2022-12-03T06:20:19.102Z,14.95
2022-12-03T06:22:46.462Z,15.63
2022-12-03T06:25:13.504Z,14.63
2022-12-03T06:27:40.623Z,15.45
2022-12-03T06:30:09.052Z,15.23
2022-12-03T06:32:36.503Z,18.60
2022-12-03T06:35:03.778Z,16.33
2022-12-03T06:37:30.724Z,16.35
2022-12-03T06:39:59.120Z,16.83
2022-12-03T06:42:26.363Z,14.88
2022-12-03T06:44:53.646Z,16.00
2022-12-03T06:47:20.681Z,15.60
2022-12-03T06:49:47.888Z,14.95
2022-12-03T06:52:14.926Z,15.63
2022-12-03T06:54:41.917Z,15.43
2022-12-03T06:57:08.916Z,15.15
2022-12-03T06:59:37.615Z,13.93
2022-12-03T07:02:05.496Z,16.13
2022-12-03T07:04:32.530Z,15.23
2022-12-03T07:06:59.900Z,15.88
2022-12-03T07:09:27.075Z,15.18
2022-12-03T07:11:54.155Z,17.58
2022-12-03T07:14:21.238Z,16.58
2022-12-03T07:16:48.329Z,15.77
2022-12-03T07:19:15.788Z,16.98
2022-12-03T07:21:43.879Z,15.10
2022-12-03T07:24:11.084Z,14.50
2022-12-03T07:26:38.759Z,17.02
2022-12-03T07:29:06.101Z,16.15
2022-12-03T07:31:33.215Z,14.98
2022-12-03T07:34:01.016Z,16.95
2022-12-03T07:36:28.028Z,17.00
2022-12-03T07:38:55.046Z,14.52
2022-12-03T07:41:22.113Z,15.25
2022-12-03T07:43:49.163Z,16.48
2022-12-03T07:46:16.120Z,17.90
2022-12-03T07:48:43.204Z,17.42
2022-12-03T07:51:14.263Z,16.85
2022-12-03T07:53:42.428Z,16.15
2022-12-03T07:56:09.633Z,16.38
2022-12-03T07:58:36.726Z,15.15
2022-12-03T08:01:03.965Z,17.48
2022-12-03T08:03:31.271Z,17.02
2022-12-03T08:05:58.325Z,16.02
2022-12-03T08:08:25.401Z,15.35
2022-12-03T08:10:52.421Z,15.85
2022-12-03T08:13:21.370Z,14.75
2022-12-03T08:15:48.654Z,15.25
2022-12-03T08:18:20.789Z,15.55
2022-12-03T08:20:50.348Z,14.57
2022-12-03T08:23:26.008Z,15.07
2022-12-03T08:25:53.660Z,16.35
2022-12-03T08:28:28.370Z,15.25
2022-12-03T08:31:05.724Z,14.38
2022-12-03T08:33:35.541Z,15.32
2022-12-03T08:36:23.944Z,16.00
2022-12-03T08:38:54.815Z,15.05
2022-12-03T08:41:45.042Z,15.95
2022-12-03T08:44:36.342Z,15.10
2022-12-03T08:47:09.569Z,16.85
2022-12-03T08:49:37.658Z,16.35
2022-12-03T08:52:18.680Z,17.55
2022-12-03T08:54:53.875Z,16.80
2022-12-03T08:57:32.420Z,15.93
2022-12-03T09:00:12.336Z,17.20
2022-12-03T09:02:47.858Z,16.42
2022-12-03T09:05:27.010Z,17.20
2022-12-03T09:07:54.060Z,18.60
2022-12-03T09:10:21.367Z,18.38
2022-12-03T09:12:48.316Z,17.38
2022-12-03T09:15:15.395Z,18.10
2022-12-03T09:17:42.466Z,17.80
2022-12-03T09:20:11.586Z,18.75
2022-12-03T09:22:39.464Z,19.13
2022-12-03T09:25:07.084Z,19.80
2022-12-03T09:27:34.220Z,18.55
2022-12-03T09:30:01.284Z,20.23
2022-12-03T09:32:28.450Z,19.50
2022-12-03T09:34:55.887Z,19.60
2022-12-03T09:37:23.109Z,18.85
2022-12-03T09:39:50.723Z,19.65
2022-12-03T09:42:18.132Z,19.58
2022-12-03T09:44:45.376Z,19.60
2022-12-03T09:47:14.484Z,18.60
2022-12-03T09:49:41.994Z,22.40
2022-12-03T09:52:14.130Z,17.98
2022-12-03T09:54:47.124Z,19.50
2022-12-03T09:57:16.920Z,21.33
2022-12-03T09:59:44.068Z,18.95
2022-12-03T10:02:30.843Z,20.17
2022-12-03T10:04:58.312Z,23.13
2022-12-03T10:07:26.128Z,20.42
2022-12-03T10:09:53.714Z,20.60
2022-12-03T10:12:25.849Z,21.02
2022-12-03T10:14:54.068Z,22.23
2022-12-03T10:17:21.671Z,22.70
2022-12-03T10:19:48.844Z,20.25
2022-12-03T10:22:15.905Z,19.42
2022-12-03T10:24:45.325Z,21.52
2022-12-03T10:27:25.008Z,19.58
2022-12-03T10:30:01.945Z,22.73
2022-12-03T10:32:46.972Z,22.95
2022-12-03T10:35:21.277Z,22.00
2022-12-03T10:37:59.509Z,23.20
2022-12-03T10:40:33.083Z,22.63
2022-12-03T10:43:18.976Z,22.73
2022-12-03T10:45:51.091Z,21.80
2022-12-03T10:48:28.981Z,22.20
2022-12-03T10:51:04.971Z,22.02
2022-12-03T10:53:37.979Z,23.80
2022-12-03T10:56:08.172Z,23.23
2022-12-03T10:58:40.465Z,21.63
2022-12-03T11:01:16.504Z,24.80
2022-12-03T11:03:44.355Z,22.95
2022-12-03T11:06:22.142Z,22.48
2022-12-03T11:08:58.449Z,20.10
2022-12-03T11:11:30.140Z,20.50
2022-12-03T11:14:00.082Z,20.98
2022-12-03T11:16:40.393Z,24.90
2022-12-03T11:19:13.760Z,23.38
2022-12-03T11:22:07.222Z,22.55
2022-12-03T11:24:39.327Z,22.77
2022-12-03T11:27:08.067Z,22.73
2022-12-03T11:29:48.911Z,21.98
2022-12-03T11:32:38.034Z,22.33
2022-12-03T11:35:15.880Z,24.00
2022-12-03T11:37:43.064Z,21.67
2022-12-03T11:40:19.184Z,22.42
2022-12-03T11:42:48.878Z,22.33
2022-12-03T11:45:30.881Z,22.92
2022-12-03T11:48:06.245Z,22.17
2022-12-03T11:50:40.333Z,22.40
2022-12-03T11:53:37.989Z,23.98
2022-12-03T11:56:09.182Z,24.15
2022-12-03T11:58:39.551Z,24.27
2022-12-03T12:01:08.336Z,24.00
2022-12-03T12:03:41.572Z,24.67
2022-12-03T12:06:14.552Z,22.08
2022-12-03T12:09:00.030Z,25.33
2022-12-03T12:11:30.555Z,20.98
2022-12-03T12:14:06.698Z,22.42
2022-12-03T12:16:53.302Z,22.98
2022-12-03T12:22:21.111Z,23.88
2022-12-03T12:24:53.569Z,21.90
2022-12-03T12:27:38.397Z,23.45
2022-12-03T12:30:14.040Z,20.50
2022-12-03T12:33:07.571Z,22.10
2022-12-03T12:35:34.669Z,23.67
2022-12-03T12:38:08.682Z,22.65
2022-12-03T12:40:41.319Z,22.10
2022-12-03T12:43:14.385Z,22.60
2022-12-03T12:45:45.329Z,23.88
2022-12-03T12:48:20.637Z,23.00
2022-12-03T12:51:12.340Z,22.75
2022-12-03T12:53:42.971Z,21.83
2022-12-03T12:56:30.872Z,23.85
2022-12-03T12:59:10.467Z,21.77
2022-12-03T13:01:37.898Z,23.35
2022-12-03T13:04:16.931Z,24.42
2022-12-03T13:06:45.084Z,23.38
2022-12-03T13:09:21.438Z,23.27
2022-12-03T13:11:58.502Z,25.63
2022-12-03T13:14:31.814Z,22.90
2022-12-03T13:17:07.978Z,24.55
2022-12-03T13:19:46.292Z,25.42
2022-12-03T13:22:20.694Z,23.55
2022-12-03T13:24:53.447Z,24.55
2022-12-03T13:27:20.557Z,23.65
2022-12-03T13:29:55.999Z,22.88
2022-12-03T13:32:40.805Z,25.02
2022-12-03T13:35:17.614Z,24.67
2022-12-03T13:37:45.262Z,20.95
2022-12-03T13:40:26.752Z,24.23
2022-12-03T13:42:55.203Z,24.92
2022-12-03T13:45:24.796Z,24.13
2022-12-03T13:48:19.982Z,24.95
2022-12-03T13:50:47.154Z,26.83
2022-12-03T13:53:22.300Z,24.67
2022-12-03T13:56:11.093Z,25.85
2022-12-03T13:58:38.161Z,25.95
2022-12-03T14:01:05.500Z,25.42
2022-12-03T14:03:32.562Z,25.55
2022-12-03T14:06:00.810Z,25.80
2022-12-03T14:08:27.965Z,23.42
2022-12-03T14:11:00.408Z,24.77
2022-12-03T14:13:27.875Z,25.88
2022-12-03T14:15:55.278Z,25.35
2022-12-03T14:18:22.577Z,22.50
2022-12-03T14:20:49.695Z,21.80
2022-12-03T14:23:16.865Z,28.30
2022-12-03T14:25:44.570Z,26.42
2022-12-03T14:28:11.830Z,26.90
2022-12-03T14:30:38.940Z,26.08
2022-12-03T14:33:05.971Z,23.90
2022-12-03T14:35:33.142Z,28.15
2022-12-03T14:38:00.241Z,24.10
2022-12-03T14:40:27.611Z,24.92
2022-12-03T14:42:54.635Z,23.80
2022-12-03T14:45:23.442Z,23.98
2022-12-03T14:47:50.774Z,25.00
2022-12-03T14:50:17.869Z,25.80
2022-12-03T14:52:44.970Z,24.17
2022-12-03T14:55:12.086Z,24.40
2022-12-03T14:57:40.468Z,28.80
2022-12-03T15:00:09.123Z,24.35
2022-12-03T15:02:36.441Z,23.90
2022-12-03T15:05:03.497Z,23.95
2022-12-03T15:07:32.004Z,23.70
2022-12-03T15:09:59.254Z,24.20
2022-12-03T15:12:28.493Z,25.38
2022-12-03T15:14:55.994Z,25.23
2022-12-03T15:17:31.281Z,24.92
2022-12-03T15:19:58.963Z,25.00
2022-12-03T15:22:26.065Z,28.00
2022-12-03T15:24:53.863Z,24.05
2022-12-03T15:27:20.881Z,24.67
2022-12-03T15:29:48.021Z,24.20
2022-12-03T15:32:15.215Z,22.40
2022-12-03T15:34:42.139Z,22.10
2022-12-03T15:37:27.649Z,23.70
2022-12-03T15:39:55.242Z,27.17
2022-12-03T15:42:22.554Z,26.00
2022-12-03T15:44:49.857Z,23.45
2022-12-03T15:47:16.978Z,26.80
2022-12-03T15:49:44.115Z,23.58
2022-12-03T15:52:12.749Z,23.35
2022-12-03T15:54:40.122Z,24.25
2022-12-03T15:57:07.257Z,23.13
2022-12-03T15:59:35.881Z,27.20
2022-12-03T16:02:04.714Z,28.35
2022-12-03T16:04:32.613Z,27.10
2022-12-03T16:06:59.919Z,24.98
2022-12-03T16:09:27.845Z,26.95
2022-12-03T16:11:55.136Z,25.13
2022-12-03T16:14:23.394Z,26.00
2022-12-03T16:16:52.886Z,26.45
2022-12-03T16:19:19.970Z,24.45
2022-12-03T16:21:48.023Z,21.52
2022-12-03T16:24:16.059Z,22.17
2022-12-03T16:26:43.174Z,23.45
2022-12-03T16:29:10.168Z,22.30
2022-12-03T16:31:37.623Z,26.25
2022-12-03T16:34:04.530Z,25.13
2022-12-03T16:36:31.548Z,29.42
2022-12-03T16:38:58.690Z,25.70
2022-12-03T16:41:25.890Z,25.40
2022-12-03T16:43:53.008Z,23.48
2022-12-03T16:46:21.159Z,23.10
2022-12-03T16:48:48.644Z,28.80
2022-12-03T16:51:16.544Z,26.13
2022-12-03T16:53:43.687Z,29.80
2022-12-03T16:56:12.435Z,25.98
2022-12-03T16:58:40.001Z,25.02
2022-12-03T17:01:07.852Z,25.00
2022-12-03T17:03:35.152Z,27.23
2022-12-03T17:06:02.836Z,27.88
2022-12-03T17:08:30.418Z,28.85
2022-12-03T17:10:57.809Z,30.35
2022-12-03T17:13:25.224Z,27.60
2022-12-03T17:15:52.381Z,34.42
2022-12-03T17:18:19.391Z,29.35
2022-12-03T17:20:47.127Z,30.98
2022-12-03T17:23:14.129Z,30.85
2022-12-03T17:25:41.111Z,31.33
2022-12-03T17:28:08.842Z,28.00
2022-12-03T17:30:40.043Z,28.98
2022-12-03T17:33:07.042Z,28.63
2022-12-03T17:35:36.405Z,28.25
2022-12-03T17:38:04.047Z,28.80
2022-12-03T17:40:31.287Z,32.55
2022-12-03T17:42:58.311Z,29.23
2022-12-03T17:45:26.344Z,26.00
2022-12-03T17:47:53.949Z,27.20
2022-12-03T17:50:21.209Z,26.55
2022-12-03T17:52:49.252Z,27.13
2022-12-03T17:55:27.860Z,26.85
2022-12-03T17:58:00.758Z,31.67
2022-12-03T18:00:28.080Z,28.77
2022-12-03T18:02:56.192Z,28.13
2022-12-03T18:05:26.180Z,29.40
2022-12-03T18:07:54.085Z,31.77
2022-12-03T18:10:21.309Z,28.00
2022-12-03T18:12:48.703Z,31.05
2022-12-03T18:15:16.972Z,30.73
2022-12-03T18:17:44.321Z,30.85
2022-12-03T18:20:11.555Z,31.17
2022-12-03T18:22:38.901Z,31.40
2022-12-03T18:25:07.040Z,27.10
2022-12-03T18:27:35.309Z,30.25
2022-12-03T18:30:02.612Z,29.30
2022-12-03T18:32:30.326Z,31.00
2022-12-03T18:34:58.174Z,30.15
2022-12-03T18:37:29.501Z,33.35
2022-12-03T18:39:57.924Z,31.20
2022-12-03T18:42:25.727Z,29.83
2022-12-03T18:44:55.342Z,30.10
2022-12-03T18:47:26.696Z,29.08
2022-12-03T18:49:55.701Z,26.58
2022-12-03T18:52:25.287Z,29.55
2022-12-03T18:54:52.563Z,27.42
2022-12-03T18:57:21.989Z,29.80
2022-12-03T18:59:49.145Z,30.38
2022-12-03T19:02:53.793Z,27.35
2022-12-03T19:05:07.566Z,25.50
2022-12-03T19:07:34.971Z,31.73
2022-12-03T19:10:02.076Z,30.52
2022-12-03T19:12:32.427Z,30.85
2022-12-03T19:15:02.159Z,27.55
2022-12-03T19:17:31.173Z,28.90
2022-12-03T19:19:58.412Z,28.98
2022-12-03T19:22:25.835Z,29.80
2022-12-03T19:24:53.150Z,28.90
2022-12-03T19:27:20.858Z,27.90
2022-12-03T19:29:49.613Z,29.05
2022-12-03T19:32:20.268Z,30.02
2022-12-03T19:34:47.265Z,29.70
2022-12-03T19:37:14.317Z,31.65
2022-12-03T19:39:41.389Z,27.90
2022-12-03T19:42:09.715Z,30.45
2022-12-03T19:44:37.254Z,30.83
2022-12-03T19:47:05.114Z,29.52
2022-12-03T19:49:32.652Z,33.47
2022-12-03T19:51:59.723Z,30.92
2022-12-03T19:54:26.975Z,30.48
2022-12-03T19:56:54.625Z,29.15
2022-12-03T19:59:21.826Z,30.42
2022-12-03T20:01:49.311Z,30.98
2022-12-03T20:04:16.819Z,30.05
2022-12-03T20:06:46.316Z,30.10
2022-12-03T20:09:18.253Z,27.17
2022-12-03T20:11:46.083Z,30.35
2022-12-03T20:14:15.440Z,28.13
2022-12-03T20:16:43.181Z,30.00
2022-12-03T20:19:12.716Z,30.10
2022-12-03T20:21:40.894Z,28.98
2022-12-03T20:24:13.520Z,30.35
2022-12-03T20:26:41.322Z,29.48
2022-12-03T20:29:08.329Z,28.33
2022-12-03T20:31:35.436Z,26.95
2022-12-03T20:34:03.369Z,29.35
2022-12-03T20:36:31.896Z,30.77
2022-12-03T20:39:05.765Z,30.40
2022-12-03T20:41:38.476Z,27.17
2022-12-03T20:44:08.006Z,29.23
2022-12-03T20:46:35.345Z,29.67
2022-12-03T20:49:02.495Z,29.63
2022-12-03T20:51:30.909Z,29.02
2022-12-03T20:54:01.203Z,28.45
2022-12-03T20:56:35.147Z,30.65
2022-12-03T20:59:11.735Z,29.90
2022-12-03T21:01:40.220Z,28.42
2022-12-03T21:04:08.322Z,28.92
2022-12-03T21:06:36.984Z,28.50
2022-12-03T21:09:06.073Z,26.88
2022-12-03T21:11:36.143Z,25.83
2022-12-03T21:14:04.335Z,26.90
2022-12-03T21:17:05.904Z,28.10
2022-12-03T21:19:23.558Z,27.58
2022-12-03T21:21:50.931Z,29.67
2022-12-03T21:24:18.013Z,28.60
2022-12-03T21:26:45.119Z,29.25
2022-12-03T21:29:12.209Z,31.63
2022-12-03T21:31:40.061Z,31.67
2022-12-03T21:34:08.722Z,31.50
2022-12-03T21:36:36.087Z,27.90
2022-12-03T21:39:04.008Z,26.88
2022-12-03T21:41:31.974Z,26.27
2022-12-03T21:43:59.494Z,26.48
2022-12-03T21:47:11.891Z,27.48
2022-12-03T21:49:14.581Z,28.33
2022-12-03T21:51:42.982Z,29.48
2022-12-03T21:54:11.736Z,29.15
2022-12-03T21:56:39.089Z,30.75
2022-12-03T21:59:06.196Z,31.05
2022-12-03T22:01:33.237Z,30.70
2022-12-03T22:04:00.362Z,29.15
2022-12-03T22:06:28.541Z,29.00
2022-12-03T22:08:57.056Z,32.05
2022-12-03T22:11:24.811Z,31.60
2022-12-03T22:13:51.864Z,28.45
2022-12-03T22:16:21.151Z,31.35
2022-12-03T22:18:48.667Z,35.42
2022-12-03T22:21:18.641Z,34.63
2022-12-03T22:23:46.547Z,29.85
2022-12-03T22:26:15.857Z,29.35
2022-12-03T22:28:47.954Z,28.20
2022-12-03T22:31:15.931Z,31.42
2022-12-03T22:33:43.621Z,32.00
2022-12-03T22:36:19.757Z,32.22
2022-12-03T22:38:48.249Z,31.02
2022-12-03T22:41:16.383Z,30.83
2022-12-03T22:43:45.180Z,29.33
2022-12-03T22:46:13.323Z,28.88
2022-12-03T22:48:42.721Z,31.08
2022-12-03T22:51:29.042Z,28.88
2022-12-03T22:53:57.950Z,31.15
2022-12-03T22:56:26.298Z,30.90
2022-12-03T22:58:53.724Z,31.52
2022-12-03T23:01:32.864Z,29.85
2022-12-03T23:04:01.103Z,31.55
2022-12-03T23:06:29.645Z,29.75
2022-12-03T23:08:58.463Z,29.30
2022-12-03T23:11:26.055Z,31.50
2022-12-03T23:13:53.378Z,27.70
2022-12-03T23:16:32.826Z,28.17
2022-12-03T23:19:01.367Z,31.33
2022-12-03T23:21:32.075Z,30.13
2022-12-03T23:24:00.951Z,30.98
2022-12-03T23:26:29.042Z,31.05
2022-12-03T23:28:57.320Z,31.95
2022-12-03T23:31:30.869Z,31.52
2022-12-03T23:33:59.359Z,30.40
2022-12-03T23:36:29.252Z,31.20
2022-12-03T23:38:56.424Z,31.02
2022-12-03T23:41:25.908Z,32.17
2022-12-03T23:43:53.432Z,33.97
2022-12-03T23:46:23.520Z,33.05
2022-12-03T23:48:51.661Z,30.08
2022-12-03T23:51:21.290Z,31.23
2022-12-03T23:53:49.275Z,30.48
2022-12-03T23:56:19.406Z,32.63
2022-12-03T23:58:47.116Z,32.13
